sensor_id;sensor_type;location;lat;lon;timestamp;temperature;humidity
32446;DHT22;18899;50.748;7.102;2024-02-04T00:00:22;11.00;99.90
32446;DHT22;18899;50.748;7.102;2024-02-04T00:02:48;11.00;99.90
32446;DHT22;18899;50.748;7.102;2024-02-04T00:05:14;11.00;99.90
32446;DHT22;18899;50.748;7.102;2024-02-04T00:07:39;11.10;99.90
32446;DHT22;18899;50.748;7.102;2024-02-04T00:10:05;11.20;99.90
32446;DHT22;18899;50.748;7.102;2024-02-04T00:12:31;11.10;99.90
32446;DHT22;18899;50.748;7.102;2024-02-04T00:14:56;11.10;99.90
32446;DHT22;18899;50.748;7.102;2024-02-04T00:17:22;11.10;99.90
32446;DHT22;18899;50.748;7.102;2024-02-04T00:19:47;11.10;99.90
32446;DHT22;18899;50.748;7.102;2024-02-04T00:22:13;11.10;99.90
32446;DHT22;18899;50.748;7.102;2024-02-04T00:24:38;11.10;99.90
32446;DHT22;18899;50.748;7.102;2024-02-04T00:27:04;11.10;99.90
32446;DHT22;18899;50.748;7.102;2024-02-04T00:29:29;11.10;99.90
32446;DHT22;18899;50.748;7.102;2024-02-04T00:31:55;11.10;99.90
32446;DHT22;18899;50.748;7.102;2024-02-04T00:34:21;11.10;99.90
32446;DHT22;18899;50.748;7.102;2024-02-04T00:36:46;11.00;99.90
32446;DHT22;18899;50.748;7.102;2024-02-04T00:39:12;11.00;99.90
32446;DHT22;18899;50.748;7.102;2024-02-04T00:41:37;11.00;99.90
32446;DHT22;18899;50.748;7.102;2024-02-04T00:44:03;10.90;99.90
32446;DHT22;18899;50.748;7.102;2024-02-04T00:46:28;10.90;99.90
32446;DHT22;18899;50.748;7.102;2024-02-04T00:48:54;10.80;99.90
32446;DHT22;18899;50.748;7.102;2024-02-04T00:51:20;10.80;99.90
32446;DHT22;18899;50.748;7.102;2024-02-04T00:53:46;10.80;99.90
32446;DHT22;18899;50.748;7.102;2024-02-04T00:56:12;10.80;99.90
32446;DHT22;18899;50.748;7.102;2024-02-04T00:58:38;10.70;99.90
32446;DHT22;18899;50.748;7.102;2024-02-04T01:01:04;10.70;99.90
32446;DHT22;18899;50.748;7.102;2024-02-04T01:03:30;10.70;99.90
32446;DHT22;18899;50.748;7.102;2024-02-04T01:05:56;10.70;99.90
32446;DHT22;18899;50.748;7.102;2024-02-04T01:08:22;10.70;99.90
32446;DHT22;18899;50.748;7.102;2024-02-04T01:10:47;10.70;99.90
32446;DHT22;18899;50.748;7.102;2024-02-04T01:13:14;10.70;99.90
32446;DHT22;18899;50.748;7.102;2024-02-04T01:15:39;10.60;99.90
32446;DHT22;18899;50.748;7.102;2024-02-04T01:18:05;10.60;99.90
32446;DHT22;18899;50.748;7.102;2024-02-04T01:20:30;10.70;99.90
32446;DHT22;18899;50.748;7.102;2024-02-04T01:22:56;10.70;99.90
32446;DHT22;18899;50.748;7.102;2024-02-04T01:25:21;10.70;99.90
32446;DHT22;18899;50.748;7.102;2024-02-04T01:27:47;10.70;99.90
32446;DHT22;18899;50.748;7.102;2024-02-04T01:30:12;10.70;99.90
32446;DHT22;18899;50.748;7.102;2024-02-04T01:32:38;10.60;99.90
32446;DHT22;18899;50.748;7.102;2024-02-04T01:35:04;10.60;99.90
32446;DHT22;18899;50.748;7.102;2024-02-04T01:37:29;10.60;99.90
32446;DHT22;18899;50.748;7.102;2024-02-04T01:39:55;10.60;99.90
32446;DHT22;18899;50.748;7.102;2024-02-04T01:42:20;10.50;99.90
32446;DHT22;18899;50.748;7.102;2024-02-04T01:44:46;10.60;99.90
32446;DHT22;18899;50.748;7.102;2024-02-04T01:47:12;10.50;99.90
32446;DHT22;18899;50.748;7.102;2024-02-04T01:49:38;10.60;99.90
32446;DHT22;18899;50.748;7.102;2024-02-04T01:52:04;10.60;99.90
32446;DHT22;18899;50.748;7.102;2024-02-04T01:54:31;10.60;99.90
32446;DHT22;18899;50.748;7.102;2024-02-04T01:56:59;10.60;99.90
32446;DHT22;18899;50.748;7.102;2024-02-04T01:59:27;10.60;99.90
32446;DHT22;18899;50.748;7.102;2024-02-04T02:01:57;10.50;99.90
32446;DHT22;18899;50.748;7.102;2024-02-04T02:04:24;10.60;99.90
32446;DHT22;18899;50.748;7.102;2024-02-04T02:06:51;10.60;99.90
32446;DHT22;18899;50.748;7.102;2024-02-04T02:09:17;10.60;99.90
32446;DHT22;18899;50.748;7.102;2024-02-04T02:12:16;10.60;99.90
32446;DHT22;18899;50.748;7.102;2024-02-04T02:14:46;10.60;99.90
32446;DHT22;18899;50.748;7.102;2024-02-04T02:17:17;10.60;99.90
32446;DHT22;18899;50.748;7.102;2024-02-04T02:19:59;10.70;99.90
32446;DHT22;18899;50.748;7.102;2024-02-04T02:22:30;10.60;99.90
32446;DHT22;18899;50.748;7.102;2024-02-04T02:25:03;10.60;99.90
32446;DHT22;18899;50.748;7.102;2024-02-04T02:27:30;10.80;99.90
32446;DHT22;18899;50.748;7.102;2024-02-04T02:29:56;10.70;99.90
32446;DHT22;18899;50.748;7.102;2024-02-04T02:32:22;10.70;99.90
32446;DHT22;18899;50.748;7.102;2024-02-04T02:34:47;10.70;99.90
32446;DHT22;18899;50.748;7.102;2024-02-04T02:40:23;10.70;99.90
32446;DHT22;18899;50.748;7.102;2024-02-04T02:42:49;10.70;99.90
32446;DHT22;18899;50.748;7.102;2024-02-04T02:45:18;10.70;99.90
32446;DHT22;18899;50.748;7.102;2024-02-04T02:47:46;10.80;99.90
32446;DHT22;18899;50.748;7.102;2024-02-04T02:50:11;10.90;99.90
32446;DHT22;18899;50.748;7.102;2024-02-04T02:52:37;10.90;99.90
32446;DHT22;18899;50.748;7.102;2024-02-04T02:55:03;10.90;99.90
32446;DHT22;18899;50.748;7.102;2024-02-04T02:57:28;10.90;99.90
32446;DHT22;18899;50.748;7.102;2024-02-04T02:59:54;10.90;99.90
32446;DHT22;18899;50.748;7.102;2024-02-04T03:02:19;10.90;99.90
32446;DHT22;18899;50.748;7.102;2024-02-04T03:04:45;11.00;99.90
32446;DHT22;18899;50.748;7.102;2024-02-04T03:07:10;11.00;99.90
32446;DHT22;18899;50.748;7.102;2024-02-04T03:09:36;11.00;99.90
32446;DHT22;18899;50.748;7.102;2024-02-04T03:12:01;10.90;99.90
32446;DHT22;18899;50.748;7.102;2024-02-04T03:14:27;10.90;99.90
32446;DHT22;18899;50.748;7.102;2024-02-04T03:16:52;10.90;99.90
32446;DHT22;18899;50.748;7.102;2024-02-04T03:19:18;11.00;99.90
32446;DHT22;18899;50.748;7.102;2024-02-04T03:21:43;11.00;99.90
32446;DHT22;18899;50.748;7.102;2024-02-04T03:24:09;11.00;99.90
32446;DHT22;18899;50.748;7.102;2024-02-04T03:26:34;11.00;99.90
32446;DHT22;18899;50.748;7.102;2024-02-04T03:29:00;11.00;99.90
32446;DHT22;18899;50.748;7.102;2024-02-04T03:31:25;11.00;99.90
32446;DHT22;18899;50.748;7.102;2024-02-04T03:33:51;11.00;99.90
32446;DHT22;18899;50.748;7.102;2024-02-04T03:36:22;11.00;99.90
32446;DHT22;18899;50.748;7.102;2024-02-04T03:38:49;11.10;99.90
32446;DHT22;18899;50.748;7.102;2024-02-04T03:41:14;11.20;99.90
32446;DHT22;18899;50.748;7.102;2024-02-04T03:43:40;11.30;99.90
32446;DHT22;18899;50.748;7.102;2024-02-04T03:46:06;11.40;99.90
32446;DHT22;18899;50.748;7.102;2024-02-04T03:48:31;11.30;99.90
32446;DHT22;18899;50.748;7.102;2024-02-04T03:50:57;11.40;99.90
32446;DHT22;18899;50.748;7.102;2024-02-04T03:53:22;11.40;99.90
32446;DHT22;18899;50.748;7.102;2024-02-04T03:55:50;11.40;99.90
32446;DHT22;18899;50.748;7.102;2024-02-04T03:58:16;11.40;99.90
32446;DHT22;18899;50.748;7.102;2024-02-04T04:00:42;11.30;99.90
32446;DHT22;18899;50.748;7.102;2024-02-04T04:03:07;11.40;99.90
32446;DHT22;18899;50.748;7.102;2024-02-04T04:05:33;11.30;99.90
32446;DHT22;18899;50.748;7.102;2024-02-04T04:07:58;11.40;99.90
32446;DHT22;18899;50.748;7.102;2024-02-04T04:10:24;11.40;99.90
32446;DHT22;18899;50.748;7.102;2024-02-04T04:12:50;11.40;99.90
32446;DHT22;18899;50.748;7.102;2024-02-04T04:15:15;11.40;99.90
32446;DHT22;18899;50.748;7.102;2024-02-04T04:17:41;11.40;99.90
32446;DHT22;18899;50.748;7.102;2024-02-04T04:20:07;11.40;99.90
32446;DHT22;18899;50.748;7.102;2024-02-04T04:22:33;11.40;99.90
32446;DHT22;18899;50.748;7.102;2024-02-04T04:24:58;11.40;99.90
32446;DHT22;18899;50.748;7.102;2024-02-04T04:27:24;11.40;99.90
32446;DHT22;18899;50.748;7.102;2024-02-04T04:29:49;11.40;99.90
32446;DHT22;18899;50.748;7.102;2024-02-04T04:32:15;11.50;99.90
32446;DHT22;18899;50.748;7.102;2024-02-04T04:34:41;11.40;99.90
32446;DHT22;18899;50.748;7.102;2024-02-04T04:37:06;11.50;99.90
32446;DHT22;18899;50.748;7.102;2024-02-04T04:39:32;11.60;99.90
32446;DHT22;18899;50.748;7.102;2024-02-04T04:41:57;11.60;99.90
32446;DHT22;18899;50.748;7.102;2024-02-04T04:44:23;11.60;99.90
32446;DHT22;18899;50.748;7.102;2024-02-04T04:46:48;11.60;99.90
32446;DHT22;18899;50.748;7.102;2024-02-04T04:49:14;11.60;99.90
32446;DHT22;18899;50.748;7.102;2024-02-04T04:51:43;11.60;99.90
32446;DHT22;18899;50.748;7.102;2024-02-04T04:54:09;11.70;99.90
32446;DHT22;18899;50.748;7.102;2024-02-04T04:56:40;11.70;99.90
32446;DHT22;18899;50.748;7.102;2024-02-04T04:59:09;11.60;99.90
32446;DHT22;18899;50.748;7.102;2024-02-04T05:01:34;11.50;99.90
32446;DHT22;18899;50.748;7.102;2024-02-04T05:04:00;11.60;99.90
32446;DHT22;18899;50.748;7.102;2024-02-04T05:06:26;11.60;99.90
32446;DHT22;18899;50.748;7.102;2024-02-04T05:08:52;11.70;99.90
32446;DHT22;18899;50.748;7.102;2024-02-04T05:11:18;11.70;99.90
32446;DHT22;18899;50.748;7.102;2024-02-04T05:13:43;11.60;99.90
32446;DHT22;18899;50.748;7.102;2024-02-04T05:16:09;11.60;99.90
32446;DHT22;18899;50.748;7.102;2024-02-04T05:18:35;11.50;99.90
32446;DHT22;18899;50.748;7.102;2024-02-04T05:21:03;11.70;99.90
32446;DHT22;18899;50.748;7.102;2024-02-04T05:23:29;11.70;99.90
32446;DHT22;18899;50.748;7.102;2024-02-04T05:25:55;11.70;99.90
32446;DHT22;18899;50.748;7.102;2024-02-04T05:28:20;11.70;99.90
32446;DHT22;18899;50.748;7.102;2024-02-04T05:30:46;11.80;99.90
32446;DHT22;18899;50.748;7.102;2024-02-04T05:33:14;11.80;99.90
32446;DHT22;18899;50.748;7.102;2024-02-04T05:35:41;12.00;99.90
32446;DHT22;18899;50.748;7.102;2024-02-04T05:38:08;12.00;99.90
32446;DHT22;18899;50.748;7.102;2024-02-04T05:40:34;12.00;99.90
32446;DHT22;18899;50.748;7.102;2024-02-04T05:42:59;12.00;99.90
32446;DHT22;18899;50.748;7.102;2024-02-04T05:45:25;11.90;99.90
32446;DHT22;18899;50.748;7.102;2024-02-04T05:47:50;11.90;99.90
32446;DHT22;18899;50.748;7.102;2024-02-04T05:50:16;11.90;99.90
32446;DHT22;18899;50.748;7.102;2024-02-04T05:52:42;11.90;99.90
32446;DHT22;18899;50.748;7.102;2024-02-04T05:55:09;11.90;99.90
32446;DHT22;18899;50.748;7.102;2024-02-04T05:57:35;11.90;99.90
32446;DHT22;18899;50.748;7.102;2024-02-04T06:00:00;11.90;99.90
32446;DHT22;18899;50.748;7.102;2024-02-04T06:02:26;11.90;99.90
32446;DHT22;18899;50.748;7.102;2024-02-04T06:04:51;11.80;99.90
32446;DHT22;18899;50.748;7.102;2024-02-04T06:07:17;11.80;99.90
32446;DHT22;18899;50.748;7.102;2024-02-04T06:09:42;11.70;99.90
32446;DHT22;18899;50.748;7.102;2024-02-04T06:12:08;11.80;99.90
32446;DHT22;18899;50.748;7.102;2024-02-04T06:14:34;11.80;99.90
32446;DHT22;18899;50.748;7.102;2024-02-04T06:17:05;11.80;99.90
32446;DHT22;18899;50.748;7.102;2024-02-04T06:19:34;11.90;99.90
32446;DHT22;18899;50.748;7.102;2024-02-04T06:22:00;12.00;99.90
32446;DHT22;18899;50.748;7.102;2024-02-04T06:24:25;11.90;99.90
32446;DHT22;18899;50.748;7.102;2024-02-04T06:26:51;11.80;99.90
32446;DHT22;18899;50.748;7.102;2024-02-04T06:29:16;11.80;99.90
32446;DHT22;18899;50.748;7.102;2024-02-04T06:31:44;11.80;99.90
32446;DHT22;18899;50.748;7.102;2024-02-04T06:34:11;11.80;99.90
32446;DHT22;18899;50.748;7.102;2024-02-04T06:36:36;11.70;99.90
32446;DHT22;18899;50.748;7.102;2024-02-04T06:39:02;11.60;99.90
32446;DHT22;18899;50.748;7.102;2024-02-04T06:41:27;11.50;99.90
32446;DHT22;18899;50.748;7.102;2024-02-04T06:43:53;11.50;99.90
32446;DHT22;18899;50.748;7.102;2024-02-04T06:46:28;11.50;99.90
32446;DHT22;18899;50.748;7.102;2024-02-04T06:48:54;11.60;99.90
32446;DHT22;18899;50.748;7.102;2024-02-04T06:51:20;11.50;99.90
32446;DHT22;18899;50.748;7.102;2024-02-04T06:53:45;11.60;99.90
32446;DHT22;18899;50.748;7.102;2024-02-04T06:56:11;11.60;99.90
32446;DHT22;18899;50.748;7.102;2024-02-04T06:58:38;11.60;99.90
32446;DHT22;18899;50.748;7.102;2024-02-04T07:01:03;11.60;99.90
32446;DHT22;18899;50.748;7.102;2024-02-04T07:03:30;11.60;99.90
32446;DHT22;18899;50.748;7.102;2024-02-04T07:05:55;11.60;99.90
32446;DHT22;18899;50.748;7.102;2024-02-04T07:08:21;11.60;99.90
32446;DHT22;18899;50.748;7.102;2024-02-04T07:10:46;11.60;99.90
32446;DHT22;18899;50.748;7.102;2024-02-04T07:13:12;11.50;99.90
32446;DHT22;18899;50.748;7.102;2024-02-04T07:15:38;11.50;99.90
32446;DHT22;18899;50.748;7.102;2024-02-04T07:18:04;11.40;99.90
32446;DHT22;18899;50.748;7.102;2024-02-04T07:20:29;11.50;99.90
32446;DHT22;18899;50.748;7.102;2024-02-04T07:22:55;11.40;99.90
32446;DHT22;18899;50.748;7.102;2024-02-04T07:25:21;11.50;99.90
32446;DHT22;18899;50.748;7.102;2024-02-04T07:27:48;11.50;99.90
32446;DHT22;18899;50.748;7.102;2024-02-04T07:30:14;11.50;99.90
32446;DHT22;18899;50.748;7.102;2024-02-04T07:32:39;11.50;99.90
32446;DHT22;18899;50.748;7.102;2024-02-04T07:35:05;11.50;99.90
32446;DHT22;18899;50.748;7.102;2024-02-04T07:37:31;11.50;99.90
32446;DHT22;18899;50.748;7.102;2024-02-04T07:39:57;11.50;99.90
32446;DHT22;18899;50.748;7.102;2024-02-04T07:42:22;11.60;99.90
32446;DHT22;18899;50.748;7.102;2024-02-04T07:44:48;11.60;99.90
32446;DHT22;18899;50.748;7.102;2024-02-04T07:47:13;11.60;99.90
32446;DHT22;18899;50.748;7.102;2024-02-04T07:49:39;11.60;99.90
32446;DHT22;18899;50.748;7.102;2024-02-04T07:52:05;11.70;99.90
32446;DHT22;18899;50.748;7.102;2024-02-04T07:54:30;11.70;99.90
32446;DHT22;18899;50.748;7.102;2024-02-04T07:56:56;11.70;99.90
32446;DHT22;18899;50.748;7.102;2024-02-04T07:59:21;11.70;99.90
32446;DHT22;18899;50.748;7.102;2024-02-04T08:01:47;11.80;99.90
32446;DHT22;18899;50.748;7.102;2024-02-04T08:04:13;11.90;99.90
32446;DHT22;18899;50.748;7.102;2024-02-04T08:06:38;11.90;99.90
32446;DHT22;18899;50.748;7.102;2024-02-04T08:09:04;12.00;99.90
32446;DHT22;18899;50.748;7.102;2024-02-04T08:11:30;12.00;99.90
32446;DHT22;18899;50.748;7.102;2024-02-04T08:13:55;11.90;99.90
32446;DHT22;18899;50.748;7.102;2024-02-04T08:16:21;12.00;99.90
32446;DHT22;18899;50.748;7.102;2024-02-04T08:18:47;12.10;99.90
32446;DHT22;18899;50.748;7.102;2024-02-04T08:21:12;12.10;99.90
32446;DHT22;18899;50.748;7.102;2024-02-04T08:23:38;12.10;99.90
32446;DHT22;18899;50.748;7.102;2024-02-04T08:26:05;12.30;99.90
32446;DHT22;18899;50.748;7.102;2024-02-04T08:28:31;12.40;99.90
32446;DHT22;18899;50.748;7.102;2024-02-04T08:30:57;12.50;99.90
32446;DHT22;18899;50.748;7.102;2024-02-04T08:33:22;12.60;99.90
32446;DHT22;18899;50.748;7.102;2024-02-04T08:35:48;12.60;99.90
32446;DHT22;18899;50.748;7.102;2024-02-04T08:38:14;12.70;99.90
32446;DHT22;18899;50.748;7.102;2024-02-04T08:40:40;12.70;99.90
32446;DHT22;18899;50.748;7.102;2024-02-04T08:43:05;12.70;99.90
32446;DHT22;18899;50.748;7.102;2024-02-04T08:45:31;12.80;99.90
32446;DHT22;18899;50.748;7.102;2024-02-04T08:47:56;12.90;99.90
32446;DHT22;18899;50.748;7.102;2024-02-04T08:50:22;13.00;99.90
32446;DHT22;18899;50.748;7.102;2024-02-04T08:52:48;13.00;99.90
32446;DHT22;18899;50.748;7.102;2024-02-04T08:55:13;13.10;99.90
32446;DHT22;18899;50.748;7.102;2024-02-04T08:57:39;13.20;99.90
32446;DHT22;18899;50.748;7.102;2024-02-04T09:00:06;13.20;99.90
32446;DHT22;18899;50.748;7.102;2024-02-04T09:02:37;13.20;99.90
32446;DHT22;18899;50.748;7.102;2024-02-04T09:05:02;13.20;99.90
32446;DHT22;18899;50.748;7.102;2024-02-04T09:07:28;13.10;99.90
32446;DHT22;18899;50.748;7.102;2024-02-04T09:09:53;13.20;99.90
32446;DHT22;18899;50.748;7.102;2024-02-04T09:12:19;13.20;99.90
32446;DHT22;18899;50.748;7.102;2024-02-04T09:14:44;13.30;99.90
32446;DHT22;18899;50.748;7.102;2024-02-04T09:17:10;13.30;99.90
32446;DHT22;18899;50.748;7.102;2024-02-04T09:19:36;13.30;99.90
32446;DHT22;18899;50.748;7.102;2024-02-04T09:22:01;13.20;99.90
32446;DHT22;18899;50.748;7.102;2024-02-04T09:24:30;13.10;99.90
32446;DHT22;18899;50.748;7.102;2024-02-04T09:26:56;13.10;99.90
32446;DHT22;18899;50.748;7.102;2024-02-04T09:29:21;13.10;99.90
32446;DHT22;18899;50.748;7.102;2024-02-04T09:31:47;13.10;99.90
32446;DHT22;18899;50.748;7.102;2024-02-04T09:34:15;12.90;99.90
32446;DHT22;18899;50.748;7.102;2024-02-04T09:36:40;12.70;99.90
32446;DHT22;18899;50.748;7.102;2024-02-04T09:39:06;12.70;99.90
32446;DHT22;18899;50.748;7.102;2024-02-04T09:41:31;12.70;99.90
32446;DHT22;18899;50.748;7.102;2024-02-04T09:43:58;12.80;99.90
32446;DHT22;18899;50.748;7.102;2024-02-04T09:46:23;12.80;99.90
32446;DHT22;18899;50.748;7.102;2024-02-04T09:48:49;13.00;99.90
32446;DHT22;18899;50.748;7.102;2024-02-04T09:51:16;13.10;99.90
32446;DHT22;18899;50.748;7.102;2024-02-04T09:53:44;13.10;99.90
32446;DHT22;18899;50.748;7.102;2024-02-04T09:56:11;13.20;99.90
32446;DHT22;18899;50.748;7.102;2024-02-04T09:58:38;13.40;99.90
32446;DHT22;18899;50.748;7.102;2024-02-04T10:01:07;13.50;99.90
32446;DHT22;18899;50.748;7.102;2024-02-04T10:03:35;13.60;99.90
32446;DHT22;18899;50.748;7.102;2024-02-04T10:06:01;13.80;99.90
32446;DHT22;18899;50.748;7.102;2024-02-04T10:08:26;13.90;99.90
32446;DHT22;18899;50.748;7.102;2024-02-04T10:10:52;14.00;99.90
32446;DHT22;18899;50.748;7.102;2024-02-04T10:13:19;14.00;99.90
32446;DHT22;18899;50.748;7.102;2024-02-04T10:15:46;14.10;99.90
32446;DHT22;18899;50.748;7.102;2024-02-04T10:18:12;14.00;99.90
32446;DHT22;18899;50.748;7.102;2024-02-04T10:20:38;14.00;99.90
32446;DHT22;18899;50.748;7.102;2024-02-04T10:23:03;13.90;99.90
32446;DHT22;18899;50.748;7.102;2024-02-04T10:25:29;14.00;99.90
32446;DHT22;18899;50.748;7.102;2024-02-04T10:27:54;13.90;99.90
32446;DHT22;18899;50.748;7.102;2024-02-04T10:30:20;13.90;99.90
32446;DHT22;18899;50.748;7.102;2024-02-04T10:32:50;14.00;99.90
32446;DHT22;18899;50.748;7.102;2024-02-04T10:35:15;14.10;99.90
32446;DHT22;18899;50.748;7.102;2024-02-04T10:37:44;14.20;99.90
32446;DHT22;18899;50.748;7.102;2024-02-04T10:40:10;14.50;99.90
32446;DHT22;18899;50.748;7.102;2024-02-04T10:42:37;14.70;99.90
32446;DHT22;18899;50.748;7.102;2024-02-04T10:45:07;14.80;99.90
32446;DHT22;18899;50.748;7.102;2024-02-04T10:47:37;14.90;99.90
32446;DHT22;18899;50.748;7.102;2024-02-04T10:50:03;14.90;99.90
32446;DHT22;18899;50.748;7.102;2024-02-04T10:52:36;15.00;99.90
32446;DHT22;18899;50.748;7.102;2024-02-04T10:55:07;15.00;99.90
32446;DHT22;18899;50.748;7.102;2024-02-04T10:57:32;14.90;99.90
32446;DHT22;18899;50.748;7.102;2024-02-04T10:59:59;15.00;99.90
32446;DHT22;18899;50.748;7.102;2024-02-04T11:02:26;15.00;99.90
32446;DHT22;18899;50.748;7.102;2024-02-04T11:04:53;14.90;99.90
32446;DHT22;18899;50.748;7.102;2024-02-04T11:07:20;15.00;99.90
32446;DHT22;18899;50.748;7.102;2024-02-04T11:09:46;15.00;99.90
32446;DHT22;18899;50.748;7.102;2024-02-04T11:12:16;15.00;99.90
32446;DHT22;18899;50.748;7.102;2024-02-04T11:14:50;15.00;99.90
32446;DHT22;18899;50.748;7.102;2024-02-04T11:17:42;14.80;99.90
32446;DHT22;18899;50.748;7.102;2024-02-04T11:25:55;14.90;99.90
32446;DHT22;18899;50.748;7.102;2024-02-04T11:28:21;15.00;99.90
32446;DHT22;18899;50.748;7.102;2024-02-04T11:30:48;15.10;99.90
32446;DHT22;18899;50.748;7.102;2024-02-04T11:33:19;15.10;99.90
32446;DHT22;18899;50.748;7.102;2024-02-04T11:35:45;14.90;99.90
32446;DHT22;18899;50.748;7.102;2024-02-04T11:38:11;14.80;99.90
32446;DHT22;18899;50.748;7.102;2024-02-04T11:40:40;14.90;99.90
32446;DHT22;18899;50.748;7.102;2024-02-04T11:43:14;14.70;99.90
32446;DHT22;18899;50.748;7.102;2024-02-04T11:45:40;14.40;99.90
32446;DHT22;18899;50.748;7.102;2024-02-04T11:48:08;14.10;99.90
32446;DHT22;18899;50.748;7.102;2024-02-04T11:50:34;14.10;99.90
32446;DHT22;18899;50.748;7.102;2024-02-04T11:53:11;13.90;99.90
32446;DHT22;18899;50.748;7.102;2024-02-04T11:55:39;13.90;99.90
32446;DHT22;18899;50.748;7.102;2024-02-04T11:58:05;13.80;99.90
32446;DHT22;18899;50.748;7.102;2024-02-04T12:00:35;13.80;99.90
32446;DHT22;18899;50.748;7.102;2024-02-04T12:03:05;13.80;99.90
32446;DHT22;18899;50.748;7.102;2024-02-04T12:05:32;13.90;99.90
32446;DHT22;18899;50.748;7.102;2024-02-04T12:08:05;14.00;99.90
32446;DHT22;18899;50.748;7.102;2024-02-04T12:10:32;14.10;99.90
32446;DHT22;18899;50.748;7.102;2024-02-04T12:13:07;14.30;99.90
32446;DHT22;18899;50.748;7.102;2024-02-04T12:15:34;14.50;99.90
32446;DHT22;18899;50.748;7.102;2024-02-04T12:18:11;14.60;99.90
32446;DHT22;18899;50.748;7.102;2024-02-04T12:20:37;14.70;99.90
32446;DHT22;18899;50.748;7.102;2024-02-04T12:23:07;14.80;99.90
32446;DHT22;18899;50.748;7.102;2024-02-04T12:25:33;14.80;99.90
32446;DHT22;18899;50.748;7.102;2024-02-04T12:28:00;14.80;99.90
32446;DHT22;18899;50.748;7.102;2024-02-04T12:30:28;14.90;99.90
32446;DHT22;18899;50.748;7.102;2024-02-04T12:33:01;14.90;99.90
32446;DHT22;18899;50.748;7.102;2024-02-04T12:35:28;14.70;99.90
32446;DHT22;18899;50.748;7.102;2024-02-04T12:37:58;14.60;99.90
32446;DHT22;18899;50.748;7.102;2024-02-04T12:40:24;14.60;99.90
32446;DHT22;18899;50.748;7.102;2024-02-04T12:45:23;14.90;99.90
32446;DHT22;18899;50.748;7.102;2024-02-04T12:47:52;15.00;99.90
32446;DHT22;18899;50.748;7.102;2024-02-04T12:50:19;15.10;99.90
32446;DHT22;18899;50.748;7.102;2024-02-04T12:52:46;15.20;99.90
32446;DHT22;18899;50.748;7.102;2024-02-04T12:55:26;15.20;99.90
32446;DHT22;18899;50.748;7.102;2024-02-04T13:00:33;15.30;99.90
32446;DHT22;18899;50.748;7.102;2024-02-04T13:02:58;15.40;99.90
32446;DHT22;18899;50.748;7.102;2024-02-04T13:05:25;15.40;99.90
32446;DHT22;18899;50.748;7.102;2024-02-04T13:07:54;15.40;99.90
32446;DHT22;18899;50.748;7.102;2024-02-04T13:10:25;15.30;99.90
32446;DHT22;18899;50.748;7.102;2024-02-04T13:13:01;15.30;99.90
32446;DHT22;18899;50.748;7.102;2024-02-04T13:15:31;15.10;99.90
32446;DHT22;18899;50.748;7.102;2024-02-04T13:17:58;14.70;99.90
32446;DHT22;18899;50.748;7.102;2024-02-04T13:20:25;14.70;99.90
32446;DHT22;18899;50.748;7.102;2024-02-04T13:22:50;14.70;99.90
32446;DHT22;18899;50.748;7.102;2024-02-04T13:25:19;14.60;99.90
32446;DHT22;18899;50.748;7.102;2024-02-04T13:27:44;14.50;99.90
32446;DHT22;18899;50.748;7.102;2024-02-04T13:30:10;14.30;99.90
32446;DHT22;18899;50.748;7.102;2024-02-04T13:32:40;14.30;99.90
32446;DHT22;18899;50.748;7.102;2024-02-04T13:35:06;14.30;99.90
32446;DHT22;18899;50.748;7.102;2024-02-04T13:37:42;14.30;99.90
32446;DHT22;18899;50.748;7.102;2024-02-04T13:40:13;14.40;99.90
32446;DHT22;18899;50.748;7.102;2024-02-04T13:42:39;14.30;99.90
32446;DHT22;18899;50.748;7.102;2024-02-04T13:45:05;14.40;99.90
32446;DHT22;18899;50.748;7.102;2024-02-04T13:47:31;14.30;99.90
32446;DHT22;18899;50.748;7.102;2024-02-04T13:49:56;14.30;99.90
32446;DHT22;18899;50.748;7.102;2024-02-04T13:52:22;14.30;99.90
32446;DHT22;18899;50.748;7.102;2024-02-04T13:54:48;14.50;99.90
32446;DHT22;18899;50.748;7.102;2024-02-04T13:57:13;14.50;99.90
32446;DHT22;18899;50.748;7.102;2024-02-04T13:59:39;14.40;99.90
32446;DHT22;18899;50.748;7.102;2024-02-04T14:02:05;14.40;99.90
32446;DHT22;18899;50.748;7.102;2024-02-04T14:04:33;14.50;99.90
32446;DHT22;18899;50.748;7.102;2024-02-04T14:06:58;14.50;99.90
32446;DHT22;18899;50.748;7.102;2024-02-04T14:09:24;14.50;99.90
32446;DHT22;18899;50.748;7.102;2024-02-04T14:11:49;14.50;99.90
32446;DHT22;18899;50.748;7.102;2024-02-04T14:14:15;14.50;99.90
32446;DHT22;18899;50.748;7.102;2024-02-04T14:16:40;14.50;99.90
32446;DHT22;18899;50.748;7.102;2024-02-04T14:19:06;14.40;99.90
32446;DHT22;18899;50.748;7.102;2024-02-04T14:21:32;14.30;99.90
32446;DHT22;18899;50.748;7.102;2024-02-04T14:23:57;14.20;99.90
32446;DHT22;18899;50.748;7.102;2024-02-04T14:26:23;14.00;99.90
32446;DHT22;18899;50.748;7.102;2024-02-04T14:28:48;13.90;99.90
32446;DHT22;18899;50.748;7.102;2024-02-04T14:31:14;13.80;99.90
32446;DHT22;18899;50.748;7.102;2024-02-04T14:33:41;13.70;99.90
32446;DHT22;18899;50.748;7.102;2024-02-04T14:36:07;13.70;99.90
32446;DHT22;18899;50.748;7.102;2024-02-04T14:38:33;13.70;99.90
32446;DHT22;18899;50.748;7.102;2024-02-04T14:40:58;13.80;99.90
32446;DHT22;18899;50.748;7.102;2024-02-04T14:43:25;13.80;99.90
32446;DHT22;18899;50.748;7.102;2024-02-04T14:45:50;13.80;99.90
32446;DHT22;18899;50.748;7.102;2024-02-04T14:48:16;13.80;99.90
32446;DHT22;18899;50.748;7.102;2024-02-04T14:50:42;13.70;99.90
32446;DHT22;18899;50.748;7.102;2024-02-04T14:53:08;13.70;99.90
32446;DHT22;18899;50.748;7.102;2024-02-04T14:55:33;13.70;99.90
32446;DHT22;18899;50.748;7.102;2024-02-04T14:57:59;13.60;99.90
32446;DHT22;18899;50.748;7.102;2024-02-04T15:00:25;13.60;99.90
32446;DHT22;18899;50.748;7.102;2024-02-04T15:02:53;13.70;99.90
32446;DHT22;18899;50.748;7.102;2024-02-04T15:05:19;13.60;99.90
32446;DHT22;18899;50.748;7.102;2024-02-04T15:07:47;13.60;99.90
32446;DHT22;18899;50.748;7.102;2024-02-04T15:10:13;13.50;99.90
32446;DHT22;18899;50.748;7.102;2024-02-04T15:12:39;13.60;99.90
32446;DHT22;18899;50.748;7.102;2024-02-04T15:15:05;13.60;99.90
32446;DHT22;18899;50.748;7.102;2024-02-04T15:17:32;13.40;99.90
32446;DHT22;18899;50.748;7.102;2024-02-04T15:19:58;13.40;99.90
32446;DHT22;18899;50.748;7.102;2024-02-04T15:22:24;13.40;99.90
32446;DHT22;18899;50.748;7.102;2024-02-04T15:24:50;13.40;99.90
32446;DHT22;18899;50.748;7.102;2024-02-04T15:27:17;13.30;99.90
32446;DHT22;18899;50.748;7.102;2024-02-04T15:29:43;13.20;99.90
32446;DHT22;18899;50.748;7.102;2024-02-04T15:32:10;13.30;99.90
32446;DHT22;18899;50.748;7.102;2024-02-04T15:34:35;13.40;99.90
32446;DHT22;18899;50.748;7.102;2024-02-04T15:37:02;13.30;99.90
32446;DHT22;18899;50.748;7.102;2024-02-04T15:39:28;13.20;99.90